Messwerte Herat

Temperatur

Temperatur
°C
1575916200 23.00 23.00 9
1575919800 0.00 0.00
1575923400 1.00 1.00 9
1575927000 2.00 2.00
1575930600 3.00 3.00
1575934200 4.00 4.00
1575937800 5.00 5.00
1575941400 6.00 6.00 8
1575945000 7.00 7.00 7
1575948600 8.00 8.00 8
1575952200 9.00 9.00 8
1575955800 10.00 10.00
1575959400 11.00 11.00 12
1575963000 12.00 12.00 14
1575966600 13.00 13.00 14
1575970200 14.00 14.00 14
1575973800 15.00 15.00
1575977400 16.00 16.00 15
1575981000 17.00 17.00 13
1575984600 18.00 18.00 12
1575988200 19.00 19.00 12
1575991800 20.00 20.00 9
1575995400 21.00 21.00 8
1575999000 22.00 22.00 7

Aktuellste Messwerte

Wettercharakter
Wetter: meist klar
Temperatur
7 °C
Feuchtigkeit
85 %
Wind
0 km/h, -
Luftdruck
1020 hPa
Messzeit: 10. Dezember 2019, 22.30Datenquelle: METAR

Weitere Messstationen in der Nähe

Messstation Temperatur Entfernung
Birjand 4 °C 317 km
Mashhad 4 °C 327 km
Zabol 13 °C 359 km
Kashmar 3 °C 359 km
Mary 6 °C 379 km
Kandahar 9 °C 454 km
Tabas 10 °C 494 km

Wind

Windrichtung Böen Mittelwind
° km/h km/h
1575916200 23.00 22.00 - 23.00 70° 5
1575919800 0.00 23.00 - 0.00
1575923400 1.00 0.00 - 1.00 100° 5
1575927000 2.00 1.00 - 2.00
1575930600 3.00 2.00 - 3.00
1575934200 4.00 3.00 - 4.00
1575937800 5.00 4.00 - 5.00
1575941400 6.00 5.00 - 6.00 300° 10
1575945000 7.00 6.00 - 7.00 290° 5
1575948600 8.00 7.00 - 8.00 280° 5
1575952200 9.00 8.00 - 9.00 300° 5
1575955800 10.00 9.00 - 10.00 5
1575959400 11.00 10.00 - 11.00 50° 5
1575963000 12.00 11.00 - 12.00 100° 40 20
1575966600 13.00 12.00 - 13.00 90° 35 20
1575970200 14.00 13.00 - 14.00 90° 30 15
1575973800 15.00 14.00 - 15.00
1575977400 16.00 15.00 - 16.00 280° 10
1575981000 17.00 16.00 - 17.00 340° 5
1575984600 18.00 17.00 - 18.00 290° 5
1575988200 19.00 18.00 - 19.00 240° 5
1575991800 20.00 19.00 - 20.00 120° 5
1575995400 21.00 20.00 - 21.00 60° 5
1575999000 22.00 21.00 - 22.00 0

Ihre Wetterstation

Fehlt Ihre Wetterstation auf unserem Portal?

Schreiben Sie an network@meteonews.ch

Klima

Wann ist es am wärmsten? Wann regnet es am wenigsten? Unsere Klimadaten geben Auskunft.